createdAt,value
2019-04-14T00:00:22.981Z,31.68
2019-04-14T00:02:54.021Z,32.35
2019-04-14T00:05:23.543Z,33.90
2019-04-14T00:07:53.828Z,32.25
2019-04-14T00:10:24.598Z,30.72
2019-04-14T00:12:55.553Z,35.83
2019-04-14T00:15:33.020Z,29.45
2019-04-14T00:17:56.789Z,31.57
2019-04-14T00:20:27.178Z,31.52
2019-04-14T00:22:57.597Z,31.50
2019-04-14T00:25:28.334Z,29.37
2019-04-14T00:27:58.601Z,34.05
2019-04-14T00:30:29.479Z,29.85
2019-04-14T00:33:01.812Z,31.73
2019-04-14T00:35:34.123Z,30.00
2019-04-14T00:38:06.295Z,30.08
2019-04-14T00:40:37.494Z,32.20
2019-04-14T00:43:09.221Z,33.35
2019-04-14T00:48:16.152Z,28.17
2019-04-14T00:50:45.153Z,32.67
2019-04-14T00:53:14.861Z,32.98
2019-04-14T00:55:44.399Z,29.70
2019-04-14T00:58:15.225Z,34.17
2019-04-14T01:00:45.145Z,33.33
2019-04-14T01:03:15.533Z,30.25
2019-04-14T01:05:45.894Z,31.35
2019-04-14T01:08:16.315Z,31.62
2019-04-14T01:10:45.897Z,28.55
2019-04-14T01:13:15.766Z,32.60
2019-04-14T01:15:54.807Z,33.10
2019-04-14T01:18:16.837Z,32.65
2019-04-14T01:20:47.113Z,34.58
2019-04-14T01:23:17.189Z,30.20
2019-04-14T01:25:47.705Z,30.43
2019-04-14T01:28:17.941Z,34.23
2019-04-14T01:30:48.048Z,32.93
2019-04-14T01:33:18.323Z,32.85
2019-04-14T01:35:48.790Z,29.37
2019-04-14T01:38:19.040Z,30.88
2019-04-14T01:40:48.860Z,32.55
2019-04-14T01:43:18.933Z,31.77
2019-04-14T01:45:59.523Z,32.53
2019-04-14T01:48:19.796Z,32.65
2019-04-14T01:50:51.645Z,32.28
2019-04-14T01:53:22.912Z,31.82
2019-04-14T01:55:54.897Z,33.28
2019-04-14T01:58:27.273Z,31.12
2019-04-14T02:00:59.722Z,32.10
2019-04-14T02:03:30.159Z,33.28
2019-04-14T02:06:00.374Z,31.52
2019-04-14T02:08:30.785Z,35.10
2019-04-14T02:11:00.902Z,34.75
2019-04-14T02:13:31.115Z,32.67
2019-04-14T02:16:14.017Z,36.88
2019-04-14T02:18:36.180Z,33.53
2019-04-14T02:21:06.472Z,33.10
2019-04-14T02:23:36.587Z,31.33
2019-04-14T02:26:07.379Z,37.13
2019-04-14T02:28:37.549Z,33.10
2019-04-14T02:31:19.405Z,33.18
2019-04-14T02:34:00.638Z,36.68
2019-04-14T02:39:09.686Z,26.17
2019-04-14T02:42:02.382Z,26.77
2019-04-14T02:46:49.791Z,24.45
2019-04-14T02:49:11.205Z,32.78
2019-04-14T02:51:40.615Z,34.00
2019-04-14T02:54:11.783Z,32.57
2019-04-14T02:56:45.461Z,35.10
2019-04-14T02:59:17.264Z,26.70
2019-04-14T03:02:10.299Z,37.65
2019-04-14T03:04:19.639Z,35.00
2019-04-14T03:06:52.149Z,26.93
2019-04-14T03:09:35.032Z,38.35
2019-04-14T03:14:25.521Z,28.27
2019-04-14T03:17:07.386Z,35.17
2019-04-14T03:19:29.912Z,35.05
2019-04-14T03:22:02.979Z,32.42
2019-04-14T03:24:31.812Z,34.10
2019-04-14T03:27:04.933Z,39.42
2019-04-14T03:29:34.770Z,39.60
2019-04-14T03:32:23.326Z,34.40
2019-04-14T03:34:55.352Z,27.52
2019-04-14T03:39:48.019Z,37.03
2019-04-14T03:42:24.898Z,36.65
2019-04-14T03:47:19.784Z,28.15
2019-04-14T03:49:45.153Z,29.57
2019-04-14T03:52:14.956Z,28.38
2019-04-14T03:54:40.241Z,40.95
2019-04-14T03:56:55.488Z,36.00
2019-04-14T03:59:26.177Z,37.78
2019-04-14T04:01:56.630Z,38.38
2019-04-14T04:04:27.500Z,40.78
2019-04-14T04:06:57.539Z,30.85
2019-04-14T04:09:29.971Z,39.05
2019-04-14T04:12:00.521Z,40.05
2019-04-14T04:14:31.331Z,38.30
2019-04-14T04:17:01.563Z,39.55
2019-04-14T04:19:33.897Z,40.30
2019-04-14T04:22:06.314Z,41.28
2019-04-14T04:24:38.885Z,36.35
2019-04-14T04:27:11.094Z,35.88
2019-04-14T04:29:44.074Z,40.48
2019-04-14T04:32:16.416Z,39.63
2019-04-14T04:34:47.715Z,38.75
2019-04-14T04:37:19.269Z,29.80
2019-04-14T04:39:51.706Z,38.80
2019-04-14T04:42:21.940Z,41.65
2019-04-14T04:44:51.528Z,40.48
2019-04-14T04:47:20.981Z,39.63
2019-04-14T04:49:51.481Z,39.05
2019-04-14T04:52:21.261Z,38.45
2019-04-14T04:54:51.637Z,40.00
2019-04-14T04:57:22.075Z,40.60
2019-04-14T04:59:51.748Z,40.98
2019-04-14T05:02:22.080Z,42.55
2019-04-14T05:04:52.646Z,40.05
2019-04-14T05:07:23.138Z,38.02
2019-04-14T05:09:55.616Z,40.40
2019-04-14T05:12:26.862Z,38.40
2019-04-14T05:14:58.829Z,29.60
2019-04-14T05:17:32.010Z,41.23
2019-04-14T05:20:01.499Z,38.88
2019-04-14T05:22:33.182Z,36.85
2019-04-14T05:25:03.608Z,37.05
2019-04-14T05:27:34.159Z,38.00
2019-04-14T05:30:06.818Z,37.03
2019-04-14T05:32:36.924Z,40.38
2019-04-14T05:35:07.423Z,34.55
2019-04-14T05:37:37.834Z,39.05
2019-04-14T05:40:08.134Z,40.50
2019-04-14T05:42:38.449Z,38.95
2019-04-14T05:45:08.745Z,40.83
2019-04-14T05:47:39.354Z,37.88
2019-04-14T05:50:09.528Z,38.95
2019-04-14T05:52:40.481Z,40.63
2019-04-14T05:55:11.239Z,39.10
2019-04-14T05:57:41.633Z,40.52
2019-04-14T06:00:12.862Z,40.05
2019-04-14T06:02:42.263Z,40.12
2019-04-14T06:05:12.940Z,39.75
2019-04-14T06:07:42.762Z,42.17
2019-04-14T06:10:12.110Z,43.45
2019-04-14T06:12:41.528Z,37.53
2019-04-14T06:15:10.889Z,38.65
2019-04-14T06:17:40.382Z,41.00
2019-04-14T06:20:09.797Z,40.33
2019-04-14T06:22:39.209Z,37.40
2019-04-14T06:25:09.045Z,38.33
2019-04-14T06:27:38.539Z,36.33
2019-04-14T06:30:09.859Z,40.40
2019-04-14T06:32:40.775Z,37.03
2019-04-14T06:35:11.485Z,26.40
2019-04-14T06:37:42.896Z,37.60
2019-04-14T06:40:12.170Z,36.95
2019-04-14T06:42:41.533Z,35.60
2019-04-14T06:45:11.049Z,36.63
2019-04-14T06:47:40.518Z,33.73
2019-04-14T06:50:11.488Z,36.80
2019-04-14T06:52:40.979Z,36.43
2019-04-14T06:55:10.188Z,34.25
2019-04-14T06:57:39.615Z,34.40
2019-04-14T07:00:09.029Z,35.58
2019-04-14T07:02:38.346Z,35.35
2019-04-14T07:05:07.898Z,38.67
2019-04-14T07:07:40.393Z,35.10
2019-04-14T07:10:09.760Z,33.33
2019-04-14T07:12:39.074Z,32.08
2019-04-14T07:15:08.575Z,36.25
2019-04-14T07:17:39.210Z,34.00
2019-04-14T07:20:08.906Z,34.95
2019-04-14T07:22:38.423Z,33.48
2019-04-14T07:25:07.903Z,33.20
2019-04-14T07:27:37.290Z,32.65
2019-04-14T07:30:08.447Z,34.95
2019-04-14T07:32:39.399Z,31.05
2019-04-14T07:35:11.619Z,32.38
2019-04-14T07:37:42.582Z,36.23
2019-04-14T07:40:13.630Z,34.50
2019-04-14T07:42:44.635Z,34.43
2019-04-14T07:45:15.707Z,34.23
2019-04-14T07:47:46.880Z,32.45
2019-04-14T07:50:19.433Z,33.63
2019-04-14T07:52:51.619Z,30.92
2019-04-14T07:55:22.718Z,34.20
2019-04-14T07:57:53.783Z,31.55
2019-04-14T08:00:24.720Z,34.00
2019-04-14T08:02:55.793Z,32.17
2019-04-14T08:05:26.786Z,31.97
2019-04-14T08:07:56.507Z,31.70
2019-04-14T08:10:25.809Z,30.20
2019-04-14T08:12:55.158Z,31.00
2019-04-14T08:15:24.497Z,29.70
2019-04-14T08:17:53.902Z,34.23
2019-04-14T08:20:27.666Z,33.73
2019-04-14T08:22:54.160Z,32.70
2019-04-14T08:25:23.590Z,32.53
2019-04-14T08:27:53.003Z,32.23
2019-04-14T08:30:22.310Z,33.70
2019-04-14T08:32:51.656Z,31.45
2019-04-14T08:35:21.140Z,31.40
2019-04-14T08:37:50.408Z,28.85
2019-04-14T08:40:19.823Z,30.88
2019-04-14T08:42:52.215Z,31.30
2019-04-14T08:45:23.254Z,35.33
2019-04-14T08:47:55.268Z,31.53
2019-04-14T08:50:38.691Z,31.77
2019-04-14T08:53:00.284Z,31.02
2019-04-14T08:55:31.350Z,30.62
2019-04-14T08:58:04.185Z,37.17
2019-04-14T09:00:35.008Z,33.10
2019-04-14T09:03:06.014Z,31.17
2019-04-14T09:05:36.884Z,31.30
2019-04-14T09:08:07.940Z,33.73
2019-04-14T09:10:38.998Z,31.53
2019-04-14T09:13:10.194Z,31.33
2019-04-14T09:15:39.998Z,35.68
2019-04-14T09:18:09.345Z,31.42
2019-04-14T09:20:51.347Z,33.53
2019-04-14T09:23:09.856Z,30.27
2019-04-14T09:25:48.842Z,31.85
2019-04-14T09:28:19.649Z,30.05
2019-04-14T09:30:52.158Z,29.52
2019-04-14T09:33:21.599Z,30.77
2019-04-14T09:35:50.940Z,30.57
2019-04-14T09:38:24.173Z,31.45
2019-04-14T09:40:54.988Z,31.25
2019-04-14T09:43:24.396Z,31.17
2019-04-14T09:45:56.486Z,29.77
2019-04-14T09:48:33.395Z,30.85
2019-04-14T09:51:17.106Z,31.23
2019-04-14T09:53:55.071Z,29.60
2019-04-14T09:56:26.830Z,28.85
2019-04-14T09:58:56.242Z,34.83
2019-04-14T10:01:26.728Z,30.55
2019-04-14T10:03:56.006Z,30.43
2019-04-14T10:06:26.949Z,31.35
2019-04-14T10:08:57.797Z,28.07
2019-04-14T10:11:27.847Z,28.32
2019-04-14T10:13:57.341Z,30.23
2019-04-14T10:16:26.690Z,25.75
2019-04-14T10:18:56.030Z,28.25
2019-04-14T10:21:25.370Z,29.40
2019-04-14T10:23:54.825Z,27.80
2019-04-14T10:26:24.304Z,27.52
2019-04-14T10:28:53.793Z,28.65
2019-04-14T10:31:23.184Z,28.65
2019-04-14T10:33:52.628Z,29.92
2019-04-14T10:36:22.138Z,28.38
2019-04-14T10:38:53.178Z,29.60
2019-04-14T10:41:23.687Z,27.82
2019-04-14T10:43:53.070Z,29.10
2019-04-14T10:46:22.340Z,29.27
2019-04-14T10:48:53.264Z,31.62
2019-04-14T10:51:29.897Z,29.07
2019-04-14T10:53:53.631Z,31.87
2019-04-14T10:56:23.898Z,28.95
2019-04-14T10:58:53.171Z,28.87
2019-04-14T11:01:22.572Z,30.62
2019-04-14T11:03:52.006Z,30.00
2019-04-14T11:06:23.351Z,29.87
2019-04-14T11:08:53.020Z,31.87
2019-04-14T11:11:22.522Z,28.42
2019-04-14T11:13:52.042Z,28.15
2019-04-14T11:16:22.732Z,28.05
2019-04-14T11:18:52.344Z,30.57
2019-04-14T11:21:23.325Z,35.52
2019-04-14T11:23:52.804Z,29.03
2019-04-14T11:26:22.167Z,32.03
2019-04-14T11:28:51.520Z,28.40
2019-04-14T11:31:22.608Z,30.50
2019-04-14T11:33:53.662Z,32.08
2019-04-14T11:36:24.587Z,33.33
2019-04-14T11:38:55.665Z,32.38
2019-04-14T11:41:25.060Z,31.15
2019-04-14T11:43:54.543Z,29.63
2019-04-14T11:46:23.934Z,31.40
2019-04-14T11:48:57.054Z,30.62
2019-04-14T11:51:26.461Z,35.00
2019-04-14T11:53:55.830Z,30.97
2019-04-14T11:56:25.639Z,32.15
2019-04-14T11:58:55.133Z,28.92
2019-04-14T12:01:25.747Z,32.90
2019-04-14T12:03:56.828Z,29.27
2019-04-14T12:06:27.829Z,26.73
2019-04-14T12:08:58.931Z,23.40
2019-04-14T12:11:28.841Z,30.00
2019-04-14T12:13:58.275Z,27.07
2019-04-14T12:16:27.657Z,32.30
2019-04-14T12:18:57.048Z,28.70
2019-04-14T12:21:26.522Z,31.00
2019-04-14T12:23:55.983Z,28.15
2019-04-14T12:26:25.467Z,29.37
2019-04-14T12:28:55.866Z,29.70
2019-04-14T12:31:26.444Z,26.15
2019-04-14T12:33:56.052Z,29.32
2019-04-14T12:36:25.513Z,32.98
2019-04-14T12:38:54.968Z,27.67
2019-04-14T12:41:26.672Z,32.25
2019-04-14T12:43:56.620Z,29.20
2019-04-14T12:46:27.733Z,30.12
2019-04-14T12:48:58.720Z,32.33
2019-04-14T12:51:29.723Z,31.80
2019-04-14T12:53:59.065Z,30.47
2019-04-14T12:56:30.091Z,29.67
2019-04-14T12:58:59.728Z,53.40
2019-04-14T13:01:31.715Z,29.15
2019-04-14T13:06:29.694Z,26.30
2019-04-14T13:08:59.042Z,30.43
2019-04-14T13:11:28.379Z,29.45
2019-04-14T13:13:57.734Z,26.52
2019-04-14T13:16:27.198Z,26.48
2019-04-14T13:18:56.688Z,26.33
2019-04-14T13:21:26.145Z,28.55
2019-04-14T13:23:55.504Z,28.05
2019-04-14T13:26:24.889Z,28.02
2019-04-14T13:28:54.314Z,29.32
2019-04-14T13:31:23.643Z,27.98
2019-04-14T13:33:54.889Z,29.57
2019-04-14T13:36:23.911Z,27.93
2019-04-14T13:38:53.709Z,27.73
2019-04-14T13:41:23.184Z,28.52
2019-04-14T13:43:52.563Z,25.92
2019-04-14T13:46:21.896Z,28.80
2019-04-14T13:48:51.364Z,28.27
2019-04-14T13:51:20.799Z,30.30
2019-04-14T13:53:50.144Z,27.67
2019-04-14T13:56:19.416Z,27.87
2019-04-14T13:58:49.994Z,25.65
2019-04-14T14:01:19.350Z,25.82
2019-04-14T14:03:48.828Z,27.20
2019-04-14T14:06:18.274Z,27.62
2019-04-14T14:08:47.652Z,27.90
2019-04-14T14:11:18.733Z,27.77
2019-04-14T14:13:49.692Z,28.33
2019-04-14T14:16:20.789Z,26.45
2019-04-14T14:18:52.168Z,25.12
2019-04-14T14:21:23.308Z,30.05
2019-04-14T14:23:54.374Z,28.60
2019-04-14T14:26:25.287Z,27.67
2019-04-14T14:28:54.714Z,26.77
2019-04-14T14:31:24.152Z,28.38
2019-04-14T14:33:53.520Z,25.65
2019-04-14T14:36:22.931Z,25.17
2019-04-14T14:38:52.329Z,27.85
2019-04-14T14:41:21.851Z,26.68
2019-04-14T14:43:51.330Z,26.17
2019-04-14T14:46:22.335Z,26.93
2019-04-14T14:48:53.902Z,25.63
2019-04-14T14:51:26.916Z,24.87
2019-04-14T14:53:56.628Z,26.07
2019-04-14T14:56:26.016Z,23.47
2019-04-14T14:58:55.480Z,25.17
2019-04-14T15:01:24.857Z,25.43
2019-04-14T15:03:54.348Z,25.25
2019-04-14T15:06:23.791Z,24.95
2019-04-14T15:08:53.112Z,27.42
2019-04-14T15:11:22.432Z,28.57
2019-04-14T15:13:53.349Z,28.07
2019-04-14T15:16:22.706Z,24.00
2019-04-14T15:18:52.085Z,26.62
2019-04-14T15:21:22.517Z,26.65
2019-04-14T15:23:51.972Z,24.37
2019-04-14T15:26:21.405Z,26.27
2019-04-14T15:28:50.717Z,26.65
2019-04-14T15:31:20.219Z,26.93
2019-04-14T15:33:49.575Z,26.07
2019-04-14T15:36:18.887Z,26.93
2019-04-14T15:38:48.271Z,27.22
2019-04-14T15:41:17.752Z,28.55
2019-04-14T15:43:47.165Z,26.25
2019-04-14T15:46:16.597Z,27.48
2019-04-14T15:48:46.015Z,26.12
2019-04-14T15:51:15.272Z,27.37
2019-04-14T15:53:44.599Z,25.62
2019-04-14T15:56:16.599Z,26.27
2019-04-14T15:58:47.605Z,26.68
2019-04-14T16:01:18.563Z,29.40
2019-04-14T16:03:49.595Z,28.65
2019-04-14T16:06:20.598Z,27.20
2019-04-14T16:08:51.428Z,26.00
2019-04-14T16:11:22.539Z,29.57
2019-04-14T16:13:53.445Z,26.90
2019-04-14T16:16:24.444Z,26.77
2019-04-14T16:18:55.420Z,27.43
2019-04-14T16:21:24.676Z,30.08
2019-04-14T16:23:53.944Z,27.50
2019-04-14T16:26:24.979Z,26.68
2019-04-14T16:28:54.859Z,25.43
2019-04-14T16:31:25.486Z,28.23
2019-04-14T16:33:56.516Z,29.18
2019-04-14T16:36:26.083Z,27.20
2019-04-14T16:38:55.528Z,27.10
2019-04-14T16:41:25.036Z,25.17
2019-04-14T16:43:54.423Z,27.60
2019-04-14T16:46:23.781Z,27.13
2019-04-14T16:48:53.176Z,27.22
2019-04-14T16:51:25.892Z,33.58
2019-04-14T16:54:03.020Z,29.32
2019-04-14T16:56:28.458Z,27.27
2019-04-14T16:58:59.495Z,26.17
2019-04-14T17:01:30.506Z,29.63
2019-04-14T17:03:59.937Z,27.77
2019-04-14T17:06:29.283Z,33.78
2019-04-14T17:08:58.775Z,26.15
2019-04-14T17:11:28.187Z,27.17
2019-04-14T17:13:59.284Z,27.30
2019-04-14T17:16:30.279Z,29.27
2019-04-14T17:19:01.352Z,27.20
2019-04-14T17:21:32.808Z,27.62
2019-04-14T17:24:10.614Z,28.10
2019-04-14T17:26:36.371Z,26.45
2019-04-14T17:29:07.461Z,26.50
2019-04-14T17:31:38.532Z,35.43
2019-04-14T17:34:09.593Z,35.73
2019-04-14T17:36:40.616Z,27.20
2019-04-14T17:39:11.715Z,26.67
2019-04-14T17:41:44.372Z,28.47
2019-04-14T17:44:15.364Z,27.45
2019-04-14T17:46:46.282Z,25.17
2019-04-14T17:49:17.425Z,27.77
2019-04-14T17:51:48.927Z,26.37
2019-04-14T17:54:29.123Z,28.45
2019-04-14T17:56:55.699Z,27.25
2019-04-14T17:59:26.638Z,42.58
2019-04-14T18:01:57.678Z,30.10
2019-04-14T18:04:28.681Z,31.97
2019-04-14T18:06:59.592Z,26.13
2019-04-14T18:12:00.211Z,26.27
2019-04-14T18:14:31.112Z,26.17
2019-04-14T18:17:05.670Z,28.62
2019-04-14T18:19:39.732Z,27.22
2019-04-14T18:22:10.556Z,30.10
2019-04-14T18:24:42.717Z,26.33
2019-04-14T18:27:11.134Z,28.25
2019-04-14T18:29:43.299Z,26.55
2019-04-14T18:32:14.444Z,26.65
2019-04-14T18:34:45.497Z,30.75
2019-04-14T18:37:16.581Z,26.75
2019-04-14T18:39:49.742Z,27.63
2019-04-14T18:42:20.422Z,26.90
2019-04-14T18:44:51.379Z,28.57
2019-04-14T18:47:22.306Z,25.82
2019-04-14T18:49:53.294Z,27.05
2019-04-14T18:52:23.195Z,30.90
2019-04-14T18:54:54.983Z,27.70
2019-04-14T18:59:56.411Z,28.62
2019-04-14T19:02:25.834Z,28.70
2019-04-14T19:04:55.143Z,25.52
2019-04-14T19:07:24.444Z,23.67
2019-04-14T19:09:53.783Z,24.92
2019-04-14T19:12:24.786Z,27.30
2019-04-14T19:14:55.771Z,28.30
2019-04-14T19:17:26.803Z,28.13
2019-04-14T19:20:02.141Z,27.50
2019-04-14T19:22:28.976Z,27.32
2019-04-14T19:25:07.936Z,25.95
2019-04-14T19:27:29.270Z,27.90
2019-04-14T19:29:58.611Z,28.02
2019-04-14T19:32:28.098Z,28.25
2019-04-14T19:34:57.434Z,26.97
2019-04-14T19:37:26.895Z,25.62
2019-04-14T19:39:56.376Z,29.10
2019-04-14T19:42:25.814Z,25.43
2019-04-14T19:44:55.230Z,28.92
2019-04-14T19:47:24.674Z,27.62
2019-04-14T19:49:54.268Z,28.67
2019-04-14T19:52:23.440Z,26.37
2019-04-14T19:54:52.935Z,28.73
2019-04-14T19:57:22.327Z,27.10
2019-04-14T19:59:52.057Z,29.48
2019-04-14T20:02:21.478Z,30.15
2019-04-14T20:04:50.844Z,31.50
2019-04-14T20:07:20.209Z,28.57
2019-04-14T20:09:49.539Z,28.65
2019-04-14T20:12:19.043Z,29.05
2019-04-14T20:14:48.480Z,27.22
2019-04-14T20:17:18.379Z,27.87
2019-04-14T20:19:49.308Z,28.45
2019-04-14T20:22:20.343Z,34.73
2019-04-14T20:24:51.388Z,27.17
2019-04-14T20:27:22.496Z,21.80
2019-04-14T20:29:53.465Z,27.27
2019-04-14T20:32:24.471Z,26.95
2019-04-14T20:34:53.830Z,33.37
2019-04-14T20:37:23.231Z,27.62
2019-04-14T20:39:52.711Z,30.85
2019-04-14T20:42:23.244Z,28.75
2019-04-14T20:44:52.659Z,32.58
2019-04-14T20:47:21.985Z,28.80
2019-04-14T20:49:51.362Z,29.60
2019-04-14T20:52:20.778Z,28.85
2019-04-14T20:54:51.562Z,31.15
2019-04-14T20:57:21.029Z,30.50
2019-04-14T20:59:50.439Z,27.77
2019-04-14T21:02:21.472Z,32.42
2019-04-14T21:04:52.483Z,33.70
2019-04-14T21:07:23.555Z,36.23
2019-04-14T21:09:55.825Z,33.70
2019-04-14T21:12:26.953Z,40.40
2019-04-14T21:14:58.055Z,34.75
2019-04-14T21:17:29.052Z,38.25
2019-04-14T21:20:00.164Z,34.87
2019-04-14T21:22:31.196Z,34.18
2019-04-14T21:25:02.274Z,36.50
2019-04-14T21:27:34.373Z,34.80
2019-04-14T21:30:08.071Z,30.80
2019-04-14T21:32:39.110Z,35.50
2019-04-14T21:35:09.888Z,41.10
2019-04-14T21:37:40.930Z,37.23
2019-04-14T21:40:11.885Z,37.43
2019-04-14T21:42:42.384Z,39.08
2019-04-14T21:45:11.828Z,42.03
2019-04-14T21:47:41.178Z,41.08
2019-04-14T21:50:10.715Z,39.20
2019-04-14T21:52:41.812Z,43.20
2019-04-14T21:55:12.783Z,39.92
2019-04-14T21:57:45.165Z,42.17
2019-04-14T22:00:16.219Z,39.50
2019-04-14T22:02:48.832Z,41.23
2019-04-14T22:05:19.797Z,43.97
2019-04-14T22:07:50.560Z,41.67
2019-04-14T22:10:24.603Z,41.98
2019-04-14T22:12:54.004Z,41.80
2019-04-14T22:15:23.436Z,41.70
2019-04-14T22:17:52.938Z,44.08
2019-04-14T22:20:22.326Z,41.13
2019-04-14T22:22:51.663Z,42.17
2019-04-14T22:25:21.149Z,40.95
2019-04-14T22:27:50.625Z,45.80
2019-04-14T22:30:20.069Z,44.67
2019-04-14T22:32:49.501Z,43.80
2019-04-14T22:35:18.915Z,44.30
2019-04-14T22:37:48.400Z,40.75
2019-04-14T22:40:17.846Z,41.50
2019-04-14T22:42:47.344Z,40.25
2019-04-14T22:45:16.810Z,41.00
2019-04-14T22:47:46.181Z,39.92
2019-04-14T22:50:15.691Z,37.85
2019-04-14T22:52:46.287Z,37.75
2019-04-14T22:55:15.801Z,36.73
2019-04-14T22:57:45.271Z,36.90
2019-04-14T23:00:19.098Z,35.85
2019-04-14T23:02:50.270Z,35.43
2019-04-14T23:05:21.326Z,30.10
2019-04-14T23:07:50.952Z,31.62
2019-04-14T23:10:22.033Z,33.90
2019-04-14T23:12:53.566Z,27.02
2019-04-14T23:15:24.670Z,30.17
2019-04-14T23:17:56.817Z,32.28
2019-04-14T23:20:27.797Z,32.28
2019-04-14T23:22:58.877Z,29.52
2019-04-14T23:25:28.274Z,29.92
2019-04-14T23:27:57.743Z,30.95
2019-04-14T23:30:27.174Z,30.05
2019-04-14T23:32:56.610Z,33.45
2019-04-14T23:35:26.069Z,30.00
2019-04-14T23:37:55.441Z,28.40
2019-04-14T23:40:24.964Z,32.23
2019-04-14T23:42:54.428Z,30.92
2019-04-14T23:45:23.897Z,30.05
2019-04-14T23:47:53.412Z,31.48
2019-04-14T23:50:22.875Z,31.73
2019-04-14T23:52:52.303Z,31.05
2019-04-14T23:55:21.889Z,32.40
2019-04-14T23:57:51.450Z,30.43
